WZZ30DF EYVI-EPGD
Flight info
| Callsign | WZZ30DF |
|---|---|
| Flight time | 1h 1m |
| Altitude | 36000 |
| Route | UPASI DCT TUNGA DCT SUWGI L29 GRUDA/N0447F350 Z95 OSLOG |
| Aircraft | A20N/M-SDE1E2E3FGIJ1J4RWXY/LB1 |
Departure
| Time | 2026-05-06 14:52 |
|---|---|
| Airport | Vilnius International Airport (EYVI) |
Arrival
| Time | 2026-05-06 15:53 |
|---|---|
| Airport | Gdańsk Lech Wałęsa Airport (EPGD) |
| Time | Latitude | Longitude | Altitude | Speed | Heading |
|---|---|---|---|---|---|
| 2026-05-06 14:30 | 54.64042 | 25.28268 | 622 ft | 0 kts | 250° |
| 2026-05-06 14:46 | 54.64041 | 25.28262 | 622 ft | 3 kts | 250° |
| 2026-05-06 14:46 | 54.63961 | 25.28222 | 618 ft | 17 kts | 166° |
| 2026-05-06 14:47 | 54.63836 | 25.28274 | 616 ft | 18 kts | 167° |
| 2026-05-06 14:47 | 54.63698 | 25.28326 | 610 ft | 21 kts | 166° |
| 2026-05-06 14:47 | 54.63596 | 25.28366 | 606 ft | 14 kts | 167° |
| 2026-05-06 14:47 | 54.63491 | 25.28319 | 602 ft | 16 kts | 202° |
| 2026-05-06 14:48 | 54.63373 | 25.28239 | 598 ft | 18 kts | 201° |
| 2026-05-06 14:48 | 54.63249 | 25.28152 | 596 ft | 20 kts | 201° |
| 2026-05-06 14:48 | 54.63114 | 25.28058 | 594 ft | 20 kts | 201° |
| 2026-05-06 14:48 | 54.63067 | 25.28027 | 593 ft | 20 kts | 201° |
| 2026-05-06 14:49 | 54.62965 | 25.27956 | 593 ft | 20 kts | 202° |
| 2026-05-06 14:49 | 54.62835 | 25.27866 | 589 ft | 18 kts | 201° |
| 2026-05-06 14:49 | 54.62716 | 25.27782 | 590 ft | 17 kts | 202° |
| 2026-05-06 14:49 | 54.62598 | 25.27701 | 590 ft | 18 kts | 201° |
| 2026-05-06 14:50 | 54.62552 | 25.27670 | 589 ft | 0 kts | 200° |
| 2026-05-06 14:50 | 54.62511 | 25.27677 | 589 ft | 12 kts | 144° |
| 2026-05-06 14:51 | 54.62441 | 25.27765 | 589 ft | 12 kts | 121° |
| 2026-05-06 14:51 | 54.62439 | 25.27902 | 588 ft | 13 kts | 37° |
| 2026-05-06 14:51 | 54.62459 | 25.27919 | 588 ft | 1 kts | 19° |
| 2026-05-06 14:51 | 54.62723 | 25.28100 | 587 ft | 81 kts | 21° |
| 2026-05-06 14:52 | 54.63468 | 25.28613 | 604 ft | 146 kts | 22° |
| 2026-05-06 14:52 | 54.64497 | 25.29307 | 1086 ft | 161 kts | 21° |
| 2026-05-06 14:52 | 54.65556 | 25.30001 | 1762 ft | 166 kts | 23° |
| 2026-05-06 14:52 | 54.66636 | 25.30746 | 2481 ft | 170 kts | 23° |
| 2026-05-06 14:53 | 54.67783 | 25.31551 | 3007 ft | 185 kts | 22° |
| 2026-05-06 14:53 | 54.69026 | 25.32416 | 3483 ft | 203 kts | 24° |
| 2026-05-06 14:53 | 54.70396 | 25.33376 | 3999 ft | 219 kts | 23° |
| 2026-05-06 14:53 | 54.71907 | 25.34430 | 4430 ft | 244 kts | 23° |
| 2026-05-06 14:54 | 54.73509 | 25.35544 | 5248 ft | 251 kts | 23° |
| 2026-05-06 14:54 | 54.75131 | 25.36673 | 6130 ft | 255 kts | 23° |
| 2026-05-06 14:54 | 54.76790 | 25.37830 | 6985 ft | 260 kts | 23° |
| 2026-05-06 14:54 | 54.78566 | 25.38571 | 7685 ft | 274 kts | 360° |
| 2026-05-06 14:55 | 54.80477 | 25.37680 | 8217 ft | 292 kts | 327° |
| 2026-05-06 14:55 | 54.81874 | 25.35136 | 9010 ft | 296 kts | 296° |
| 2026-05-06 14:55 | 54.82663 | 25.31872 | 9976 ft | 294 kts | 288° |
| 2026-05-06 14:55 | 54.83340 | 25.28454 | 10699 ft | 302 kts | 280° |
| 2026-05-06 14:56 | 54.83378 | 25.24780 | 11358 ft | 307 kts | 255° |
| 2026-05-06 14:56 | 54.82500 | 25.21403 | 12241 ft | 306 kts | 231° |
| 2026-05-06 14:56 | 54.80927 | 25.19007 | 13075 ft | 307 kts | 208° |
| 2026-05-06 14:56 | 54.78948 | 25.17512 | 13905 ft | 310 kts | 201° |
| 2026-05-06 14:57 | 54.76927 | 25.16154 | 14668 ft | 314 kts | 201° |
| 2026-05-06 14:57 | 54.74872 | 25.14769 | 15379 ft | 319 kts | 202° |
| 2026-05-06 14:57 | 54.72782 | 25.13308 | 16016 ft | 326 kts | 205° |
| 2026-05-06 14:57 | 54.70795 | 25.11384 | 16724 ft | 329 kts | 215° |
| 2026-05-06 14:58 | 54.69007 | 25.08883 | 17443 ft | 332 kts | 223° |
| 2026-05-06 14:58 | 54.67352 | 25.06089 | 18139 ft | 335 kts | 225° |
| 2026-05-06 14:58 | 54.65685 | 25.03189 | 18811 ft | 338 kts | 226° |
| 2026-05-06 14:58 | 54.63998 | 25.00257 | 19466 ft | 342 kts | 226° |
| 2026-05-06 14:59 | 54.62302 | 24.97325 | 20105 ft | 345 kts | 226° |
| 2026-05-06 14:59 | 54.60568 | 24.94340 | 20735 ft | 349 kts | 226° |
| 2026-05-06 14:59 | 54.58838 | 24.91369 | 21344 ft | 353 kts | 226° |
| 2026-05-06 14:59 | 54.57068 | 24.88339 | 21952 ft | 356 kts | 226° |
| 2026-05-06 15:00 | 54.55259 | 24.85248 | 22555 ft | 360 kts | 226° |
| 2026-05-06 15:00 | 54.53470 | 24.82195 | 23131 ft | 364 kts | 226° |
| 2026-05-06 15:00 | 54.51672 | 24.79085 | 23691 ft | 367 kts | 230° |
| 2026-05-06 15:00 | 54.50072 | 24.75601 | 24235 ft | 369 kts | 238° |
| 2026-05-06 15:01 | 54.48796 | 24.71681 | 24773 ft | 371 kts | 247° |
| 2026-05-06 15:01 | 54.47801 | 24.67556 | 25303 ft | 373 kts | 250° |
| 2026-05-06 15:01 | 54.46837 | 24.63284 | 25822 ft | 376 kts | 251° |
| 2026-05-06 15:01 | 54.45862 | 24.58946 | 26331 ft | 380 kts | 251° |
| 2026-05-06 15:02 | 54.44881 | 24.54615 | 26825 ft | 383 kts | 251° |
| 2026-05-06 15:02 | 54.43885 | 24.50250 | 27303 ft | 386 kts | 251° |
| 2026-05-06 15:02 | 54.42870 | 24.45820 | 27762 ft | 389 kts | 251° |
| 2026-05-06 15:02 | 54.41861 | 24.41439 | 28189 ft | 392 kts | 251° |
| 2026-05-06 15:03 | 54.40843 | 24.37033 | 28594 ft | 395 kts | 251° |
| 2026-05-06 15:03 | 54.39795 | 24.32506 | 28990 ft | 398 kts | 250° |
| 2026-05-06 15:03 | 54.38793 | 24.28000 | 29360 ft | 401 kts | 252° |
| 2026-05-06 15:03 | 54.37921 | 24.23381 | 29719 ft | 403 kts | 255° |
| 2026-05-06 15:04 | 54.37109 | 24.18780 | 30061 ft | 406 kts | 255° |
| 2026-05-06 15:04 | 54.36264 | 24.13972 | 30400 ft | 408 kts | 255° |
| 2026-05-06 15:04 | 54.35426 | 24.09218 | 30716 ft | 411 kts | 255° |
| 2026-05-06 15:04 | 54.34585 | 24.04468 | 31016 ft | 414 kts | 256° |
| 2026-05-06 15:05 | 54.33716 | 23.99569 | 31316 ft | 416 kts | 256° |
| 2026-05-06 15:05 | 54.32870 | 23.94815 | 31598 ft | 419 kts | 256° |
| 2026-05-06 15:05 | 54.32032 | 23.90121 | 31865 ft | 421 kts | 256° |
| 2026-05-06 15:05 | 54.31162 | 23.85256 | 32161 ft | 423 kts | 256° |
| 2026-05-06 15:06 | 54.30284 | 23.80367 | 32527 ft | 422 kts | 256° |
| 2026-05-06 15:06 | 54.29399 | 23.75450 | 32896 ft | 422 kts | 256° |
| 2026-05-06 15:06 | 54.28516 | 23.70554 | 33241 ft | 422 kts | 256° |
| 2026-05-06 15:06 | 54.27623 | 23.65620 | 33572 ft | 422 kts | 256° |
| 2026-05-06 15:07 | 54.26735 | 23.60724 | 33892 ft | 422 kts | 256° |
| 2026-05-06 15:07 | 54.25842 | 23.55816 | 34190 ft | 423 kts | 256° |
| 2026-05-06 15:07 | 54.24950 | 23.50925 | 34454 ft | 424 kts | 256° |
| 2026-05-06 15:07 | 54.24062 | 23.46079 | 34703 ft | 425 kts | 256° |
| 2026-05-06 15:08 | 54.23061 | 23.41205 | 34950 ft | 428 kts | 252° |
| 2026-05-06 15:08 | 54.21884 | 23.36426 | 35193 ft | 430 kts | 249° |
| 2026-05-06 15:08 | 54.20525 | 23.31747 | 35428 ft | 432 kts | 244° |
| 2026-05-06 15:08 | 54.19074 | 23.27205 | 35661 ft | 433 kts | 244° |
| 2026-05-06 15:09 | 54.17583 | 23.22587 | 35792 ft | 435 kts | 244° |
| 2026-05-06 15:09 | 54.14612 | 23.13413 | 35802 ft | 435 kts | 244° |
| 2026-05-06 15:10 | 54.11654 | 23.04302 | 35805 ft | 434 kts | 244° |
| 2026-05-06 15:10 | 54.08867 | 22.95028 | 35805 ft | 433 kts | 249° |
| 2026-05-06 15:11 | 54.06708 | 22.85249 | 35806 ft | 429 kts | 256° |
| 2026-05-06 15:11 | 54.05270 | 22.75324 | 35806 ft | 426 kts | 262° |
| 2026-05-06 15:12 | 54.04113 | 22.65299 | 35806 ft | 426 kts | 262° |
| 2026-05-06 15:12 | 54.02950 | 22.55283 | 35807 ft | 426 kts | 262° |
| 2026-05-06 15:13 | 54.01772 | 22.45250 | 35811 ft | 426 kts | 262° |
| 2026-05-06 15:13 | 54.00583 | 22.35222 | 35823 ft | 426 kts | 262° |
| 2026-05-06 15:14 | 53.99384 | 22.25173 | 35840 ft | 426 kts | 261° |
| 2026-05-06 15:14 | 53.98181 | 22.15167 | 35851 ft | 426 kts | 261° |
| 2026-05-06 15:15 | 53.96960 | 22.05104 | 35856 ft | 426 kts | 261° |
| 2026-05-06 15:15 | 53.95736 | 21.95086 | 35859 ft | 426 kts | 261° |
| 2026-05-06 15:16 | 53.94505 | 21.85085 | 35859 ft | 426 kts | 261° |
| 2026-05-06 15:16 | 53.93269 | 21.75127 | 35860 ft | 426 kts | 261° |
| 2026-05-06 15:17 | 53.92010 | 21.65048 | 35860 ft | 426 kts | 261° |
| 2026-05-06 15:17 | 53.90746 | 21.55012 | 35860 ft | 426 kts | 261° |
| 2026-05-06 15:18 | 53.89465 | 21.44960 | 35859 ft | 426 kts | 261° |
| 2026-05-06 15:18 | 53.88160 | 21.34940 | 35859 ft | 426 kts | 260° |
| 2026-05-06 15:19 | 53.86872 | 21.24953 | 35859 ft | 426 kts | 260° |
| 2026-05-06 15:19 | 53.85579 | 21.14966 | 35853 ft | 426 kts | 260° |
| 2026-05-06 15:20 | 53.84287 | 21.05110 | 35821 ft | 426 kts | 260° |
| 2026-05-06 15:20 | 53.82985 | 20.95240 | 35798 ft | 425 kts | 260° |
| 2026-05-06 15:21 | 53.81679 | 20.85386 | 35787 ft | 424 kts | 260° |
| 2026-05-06 15:21 | 53.80362 | 20.75510 | 35782 ft | 423 kts | 260° |
| 2026-05-06 15:22 | 53.79050 | 20.65722 | 35780 ft | 423 kts | 260° |
| 2026-05-06 15:22 | 53.77719 | 20.55877 | 35779 ft | 423 kts | 260° |
| 2026-05-06 15:23 | 53.76387 | 20.46100 | 35779 ft | 423 kts | 260° |
| 2026-05-06 15:23 | 53.75044 | 20.36331 | 35779 ft | 423 kts | 260° |
| 2026-05-06 15:24 | 53.73666 | 20.26340 | 35207 ft | 425 kts | 259° |
| 2026-05-06 15:24 | 53.72983 | 20.21390 | 34160 ft | 435 kts | 259° |
| 2026-05-06 15:24 | 53.72290 | 20.16390 | 33248 ft | 440 kts | 259° |
| 2026-05-06 15:24 | 53.71575 | 20.11256 | 32441 ft | 441 kts | 259° |
| 2026-05-06 15:25 | 53.70871 | 20.06228 | 31742 ft | 440 kts | 259° |
| 2026-05-06 15:25 | 53.70159 | 20.01177 | 31227 ft | 434 kts | 259° |
| 2026-05-06 15:25 | 53.69459 | 19.96231 | 30790 ft | 427 kts | 259° |
| 2026-05-06 15:25 | 53.68776 | 19.91414 | 30353 ft | 421 kts | 259° |
| 2026-05-06 15:26 | 53.68086 | 19.86556 | 29905 ft | 415 kts | 259° |
| 2026-05-06 15:26 | 53.67407 | 19.81794 | 29459 ft | 410 kts | 258° |
| 2026-05-06 15:26 | 53.66735 | 19.77097 | 29013 ft | 405 kts | 258° |
| 2026-05-06 15:26 | 53.66070 | 19.72461 | 28567 ft | 401 kts | 258° |
| 2026-05-06 15:27 | 53.65407 | 19.67848 | 28120 ft | 396 kts | 258° |
| 2026-05-06 15:27 | 53.64733 | 19.63171 | 27661 ft | 392 kts | 258° |
| 2026-05-06 15:27 | 53.64085 | 19.58687 | 27219 ft | 388 kts | 258° |
| 2026-05-06 15:27 | 53.63442 | 19.54247 | 26782 ft | 384 kts | 258° |
| 2026-05-06 15:28 | 53.62820 | 19.49813 | 26329 ft | 380 kts | 262° |
| 2026-05-06 15:28 | 53.62809 | 19.45356 | 25534 ft | 377 kts | 283° |
| 2026-05-06 15:28 | 53.63594 | 19.41155 | 24522 ft | 375 kts | 289° |
| 2026-05-06 15:28 | 53.64496 | 19.36955 | 23485 ft | 372 kts | 289° |
| 2026-05-06 15:29 | 53.65358 | 19.32851 | 22536 ft | 367 kts | 288° |
| 2026-05-06 15:29 | 53.66202 | 19.28716 | 21601 ft | 362 kts | 287° |
| 2026-05-06 15:29 | 53.67012 | 19.24666 | 20696 ft | 356 kts | 287° |
| 2026-05-06 15:29 | 53.67793 | 19.20710 | 20192 ft | 342 kts | 286° |
| 2026-05-06 15:30 | 53.68540 | 19.16891 | 19749 ft | 337 kts | 286° |
| 2026-05-06 15:30 | 53.69270 | 19.13144 | 19314 ft | 335 kts | 286° |
| 2026-05-06 15:30 | 53.70002 | 19.09365 | 18884 ft | 333 kts | 286° |
| 2026-05-06 15:30 | 53.70728 | 19.05606 | 18462 ft | 331 kts | 286° |
| 2026-05-06 15:31 | 53.71443 | 19.01900 | 18049 ft | 329 kts | 285° |
| 2026-05-06 15:31 | 53.72163 | 18.98161 | 17636 ft | 327 kts | 285° |
| 2026-05-06 15:31 | 53.72872 | 18.94467 | 17231 ft | 325 kts | 285° |
| 2026-05-06 15:32 | 53.74280 | 18.87109 | 16430 ft | 321 kts | 285° |
| 2026-05-06 15:32 | 53.74972 | 18.83483 | 16036 ft | 319 kts | 285° |
| 2026-05-06 15:32 | 53.75654 | 18.79905 | 15648 ft | 316 kts | 285° |
| 2026-05-06 15:32 | 53.76511 | 18.76456 | 15252 ft | 318 kts | 297° |
| 2026-05-06 15:33 | 53.77848 | 18.73386 | 14860 ft | 319 kts | 310° |
| 2026-05-06 15:33 | 53.79484 | 18.70754 | 14479 ft | 319 kts | 315° |
| 2026-05-06 15:33 | 53.81146 | 18.68272 | 14101 ft | 317 kts | 316° |
| 2026-05-06 15:33 | 53.82832 | 18.65767 | 13720 ft | 316 kts | 316° |
| 2026-05-06 15:34 | 53.84479 | 18.63297 | 13346 ft | 314 kts | 315° |
| 2026-05-06 15:34 | 53.86128 | 18.60805 | 12972 ft | 312 kts | 315° |
| 2026-05-06 15:34 | 53.87767 | 18.58314 | 12599 ft | 310 kts | 315° |
| 2026-05-06 15:34 | 53.89389 | 18.55840 | 12231 ft | 308 kts | 315° |
| 2026-05-06 15:35 | 53.90996 | 18.53385 | 11843 ft | 307 kts | 315° |
| 2026-05-06 15:35 | 53.92608 | 18.50916 | 11457 ft | 306 kts | 315° |
| 2026-05-06 15:35 | 53.94203 | 18.48469 | 11075 ft | 306 kts | 315° |
| 2026-05-06 15:35 | 53.95797 | 18.46023 | 10695 ft | 305 kts | 315° |
| 2026-05-06 15:36 | 53.97406 | 18.43635 | 10320 ft | 305 kts | 319° |
| 2026-05-06 15:36 | 53.99170 | 18.41552 | 9948 ft | 307 kts | 327° |
| 2026-05-06 15:36 | 54.01040 | 18.39853 | 9769 ft | 298 kts | 332° |
| 2026-05-06 15:36 | 54.02891 | 18.38317 | 9610 ft | 290 kts | 333° |
| 2026-05-06 15:37 | 54.04731 | 18.36803 | 9276 ft | 289 kts | 333° |
| 2026-05-06 15:37 | 54.06550 | 18.35299 | 8958 ft | 287 kts | 333° |
| 2026-05-06 15:37 | 54.08385 | 18.33762 | 8639 ft | 285 kts | 332° |
| 2026-05-06 15:37 | 54.10164 | 18.32254 | 8331 ft | 283 kts | 332° |
| 2026-05-06 15:38 | 54.11942 | 18.30758 | 8026 ft | 282 kts | 333° |
| 2026-05-06 15:38 | 54.13681 | 18.29302 | 7729 ft | 280 kts | 333° |
| 2026-05-06 15:38 | 54.15431 | 18.27820 | 7431 ft | 278 kts | 334° |
| 2026-05-06 15:38 | 54.17158 | 18.26367 | 7137 ft | 276 kts | 333° |
| 2026-05-06 15:39 | 54.18876 | 18.24922 | 6846 ft | 274 kts | 333° |
| 2026-05-06 15:39 | 54.20611 | 18.23449 | 6796 ft | 285 kts | 333° |
| 2026-05-06 15:39 | 54.22423 | 18.21911 | 6814 ft | 287 kts | 334° |
| 2026-05-06 15:39 | 54.24223 | 18.20391 | 6822 ft | 288 kts | 333° |
| 2026-05-06 15:40 | 54.26049 | 18.19002 | 6851 ft | 281 kts | 345° |
| 2026-05-06 15:40 | 54.27954 | 18.18999 | 6825 ft | 262 kts | 18° |
| 2026-05-06 15:40 | 54.29610 | 18.20136 | 6832 ft | 249 kts | 29° |
| 2026-05-06 15:40 | 54.31095 | 18.21405 | 6832 ft | 248 kts | 30° |
| 2026-05-06 15:41 | 54.32722 | 18.22391 | 6805 ft | 253 kts | 5° |
| 2026-05-06 15:41 | 54.34450 | 18.21675 | 6816 ft | 255 kts | 325° |
| 2026-05-06 15:41 | 54.35599 | 18.19389 | 6830 ft | 253 kts | 293° |
| 2026-05-06 15:41 | 54.36271 | 18.16573 | 6835 ft | 253 kts | 288° |
| 2026-05-06 15:42 | 54.36882 | 18.13759 | 6832 ft | 251 kts | 288° |
| 2026-05-06 15:42 | 54.37517 | 18.10905 | 6829 ft | 253 kts | 289° |
| 2026-05-06 15:42 | 54.38173 | 18.08094 | 6829 ft | 253 kts | 290° |
| 2026-05-06 15:42 | 54.38845 | 18.05291 | 6828 ft | 252 kts | 290° |
| 2026-05-06 15:43 | 54.39520 | 18.02477 | 6828 ft | 253 kts | 290° |
| 2026-05-06 15:43 | 54.40193 | 17.99695 | 6838 ft | 252 kts | 290° |
| 2026-05-06 15:43 | 54.40868 | 17.96892 | 6833 ft | 252 kts | 290° |
| 2026-05-06 15:43 | 54.41553 | 17.94040 | 6831 ft | 253 kts | 290° |
| 2026-05-06 15:44 | 54.42231 | 17.91239 | 6829 ft | 253 kts | 290° |
| 2026-05-06 15:44 | 54.42921 | 17.88425 | 6826 ft | 253 kts | 295° |
| 2026-05-06 15:44 | 54.44064 | 17.86124 | 6802 ft | 254 kts | 332° |
| 2026-05-06 15:44 | 54.45755 | 17.85452 | 6824 ft | 251 kts | 11° |
| 2026-05-06 15:45 | 54.47389 | 17.86374 | 6837 ft | 248 kts | 28° |
| 2026-05-06 15:45 | 54.48971 | 17.87686 | 6744 ft | 249 kts | 30° |
| 2026-05-06 15:45 | 54.50340 | 17.89422 | 6455 ft | 240 kts | 59° |
| 2026-05-06 15:45 | 54.50869 | 17.91974 | 6222 ft | 225 kts | 92° |
| 2026-05-06 15:46 | 54.50552 | 17.94535 | 5972 ft | 216 kts | 115° |
| 2026-05-06 15:46 | 54.49950 | 17.96886 | 5749 ft | 209 kts | 116° |
| 2026-05-06 15:46 | 54.49363 | 17.99151 | 5484 ft | 203 kts | 114° |
| 2026-05-06 15:46 | 54.48820 | 18.01385 | 5288 ft | 199 kts | 111° |
| 2026-05-06 15:47 | 54.48352 | 18.03617 | 5061 ft | 197 kts | 110° |
| 2026-05-06 15:47 | 54.47886 | 18.05787 | 4927 ft | 187 kts | 111° |
| 2026-05-06 15:47 | 54.47405 | 18.07888 | 4647 ft | 182 kts | 111° |
| 2026-05-06 15:47 | 54.46927 | 18.09886 | 4373 ft | 180 kts | 112° |
| 2026-05-06 15:48 | 54.46442 | 18.11860 | 4114 ft | 179 kts | 113° |
| 2026-05-06 15:48 | 54.45948 | 18.13836 | 3875 ft | 178 kts | 113° |
| 2026-05-06 15:48 | 54.45457 | 18.15782 | 3651 ft | 177 kts | 112° |
| 2026-05-06 15:48 | 54.44965 | 18.17731 | 3502 ft | 174 kts | 112° |
| 2026-05-06 15:49 | 54.44490 | 18.19610 | 3304 ft | 172 kts | 111° |
| 2026-05-06 15:49 | 54.44008 | 18.21528 | 3075 ft | 172 kts | 111° |
| 2026-05-06 15:49 | 54.43536 | 18.23405 | 3017 ft | 172 kts | 111° |
| 2026-05-06 15:49 | 54.43057 | 18.25299 | 2973 ft | 170 kts | 108° |
| 2026-05-06 15:50 | 54.42593 | 18.27134 | 2923 ft | 152 kts | 107° |
| 2026-05-06 15:50 | 54.42188 | 18.28739 | 2812 ft | 145 kts | 106° |
| 2026-05-06 15:50 | 54.41793 | 18.30329 | 2577 ft | 142 kts | 105° |
| 2026-05-06 15:50 | 54.41404 | 18.31894 | 2353 ft | 140 kts | 105° |
| 2026-05-06 15:51 | 54.41016 | 18.33456 | 2131 ft | 139 kts | 105° |
| 2026-05-06 15:51 | 54.40636 | 18.34984 | 1915 ft | 138 kts | 105° |
| 2026-05-06 15:51 | 54.40262 | 18.36488 | 1703 ft | 136 kts | 105° |
| 2026-05-06 15:51 | 54.39882 | 18.38017 | 1488 ft | 135 kts | 105° |
| 2026-05-06 15:52 | 54.39510 | 18.39515 | 1279 ft | 134 kts | 105° |
| 2026-05-06 15:52 | 54.39143 | 18.40991 | 1069 ft | 132 kts | 105° |
| 2026-05-06 15:52 | 54.38781 | 18.42449 | 862 ft | 131 kts | 105° |
| 2026-05-06 15:52 | 54.38425 | 18.43890 | 619 ft | 129 kts | 105° |
| 2026-05-06 15:53 | 54.38079 | 18.45316 | 478 ft | 128 kts | 105° |
| 2026-05-06 15:53 | 54.37768 | 18.46625 | 447 ft | 99 kts | 113° |
| 2026-05-06 15:53 | 54.37553 | 18.47439 | 451 ft | 48 kts | 111° |
| 2026-05-06 15:53 | 54.37448 | 18.47860 | 459 ft | 42 kts | 115° |
| 2026-05-06 15:54 | 54.37349 | 18.48262 | 470 ft | 27 kts | 111° |
| 2026-05-06 15:54 | 54.37295 | 18.48515 | 478 ft | 16 kts | 92° |
| 2026-05-06 15:54 | 54.37354 | 18.48621 | 480 ft | 8 kts | 20° |
| 2026-05-06 15:54 | 54.37355 | 18.48622 | 480 ft | 0 kts | 20° |
| 2026-05-06 15:55 | 54.37448 | 18.48582 | 479 ft | 22 kts | 293° |
| 2026-05-06 15:55 | 54.37519 | 18.48301 | 471 ft | 28 kts | 293° |
| 2026-05-06 15:55 | 54.37587 | 18.48028 | 465 ft | 24 kts | 292° |
| 2026-05-06 15:56 | 54.37656 | 18.47743 | 459 ft | 26 kts | 292° |
| 2026-05-06 15:56 | 54.37722 | 18.47477 | 452 ft | 23 kts | 294° |
| 2026-05-06 15:56 | 54.37788 | 18.47214 | 452 ft | 23 kts | 293° |
| 2026-05-06 15:56 | 54.37851 | 18.46961 | 449 ft | 20 kts | 293° |
| 2026-05-06 15:57 | 54.37907 | 18.46731 | 448 ft | 20 kts | 292° |
| 2026-05-06 15:57 | 54.37949 | 18.46563 | 448 ft | 14 kts | 292° |
| 2026-05-06 15:57 | 54.37981 | 18.46431 | 448 ft | 6 kts | 299° |
| 2026-05-06 15:57 | 54.38016 | 18.46422 | 448 ft | 3 kts | 18° |
| 2026-05-06 15:58 | 54.38039 | 18.46437 | 448 ft | 0 kts | 23° |
| 2026-05-06 15:58 | 54.38047 | 18.46444 | 448 ft | 1 kts | 24° |
| 2026-05-06 15:58 | 54.38055 | 18.46450 | 448 ft | 0 kts | 23° |